Time;durP1;ratioP1;P1;durP2;ratioP2;P2;SDS_P1;SDS_P2;PMS_P1;PMS_P2;Temp;Humidity;BMP_temperature;BMP_pressure;BME280_temperature;BME280_humidity;BME280_pressure;Samples;Min_cycle;Max_cycle;Signal;HPM_P1;HPM_P2
2022/07/16 00:02:00;;;;;;;0.00;0.00;;;21.70;52.40;;;;;;5136267;27;20477;-73
2022/07/16 00:04:26;;;;;;;0.00;0.00;;;21.70;53.10;;;;;;5117900;27;20100;-74
2022/07/16 00:06:52;;;;;;;0.00;0.00;;;21.70;53.10;;;;;;5136146;27;20022;-73
2022/07/16 00:09:18;;;;;;;0.05;0.05;;;21.80;52.40;;;;;;5136190;27;20015;-73
2022/07/16 00:11:44;;;;;;;1.20;1.10;;;21.90;54.30;;;;;;5135880;27;20015;-73
2022/07/16 00:14:11;;;;;;;0.00;0.00;;;21.90;53.10;;;;;;5136143;27;20381;-74
2022/07/16 00:16:37;;;;;;;0.00;0.00;;;22.00;53.40;;;;;;5136008;27;20477;-73
2022/07/16 00:19:23;;;;;;;0.00;0.00;;;22.00;52.90;;;;;;5135629;27;20047;-73
2022/07/16 00:21:52;;;;;;;0.00;0.00;;;22.20;52.80;;;;;;5109716;27;20077;-73
2022/07/16 00:24:19;;;;;;;0.00;0.00;;;22.50;52.00;;;;;;5136174;27;20239;-73
2022/07/16 00:26:46;;;;;;;0.00;0.00;;;22.70;52.80;;;;;;5117416;27;20026;-73
2022/07/16 00:29:13;;;;;;;0.00;0.00;;;22.80;51.60;;;;;;5117321;27;20015;-73
2022/07/16 00:31:39;;;;;;;0.00;0.00;;;22.70;52.50;;;;;;5135721;27;20030;-74
2022/07/16 00:34:09;;;;;;;0.00;0.00;;;22.80;51.90;;;;;;5135728;27;20055;-74
2022/07/16 00:36:37;;;;;;;0.00;0.00;;;23.20;52.10;;;;;;5117176;27;20489;-74
2022/07/16 00:39:04;;;;;;;0.00;0.00;;;24.00;49.60;;;;;;5117002;27;20051;-74
2022/07/16 00:41:31;;;;;;;0.00;0.00;;;24.70;46.60;;;;;;5135567;27;20019;-74
2022/07/16 00:44:01;;;;;;;0.00;0.00;;;25.50;46.40;;;;;;5135609;27;20369;-74
2022/07/16 00:46:28;;;;;;;0.00;0.00;;;25.90;45.50;;;;;;5123897;27;20023;-74
2022/07/16 00:48:54;;;;;;;0.00;0.00;;;26.50;44.50;;;;;;5111720;27;20293;-74
2022/07/16 00:51:22;;;;;;;0.00;0.00;;;27.10;44.40;;;;;;5134559;27;20030;-74
2022/07/16 00:53:49;;;;;;;0.00;0.00;;;27.90;43.70;;;;;;5116887;27;20401;-74
2022/07/16 00:56:16;;;;;;;0.00;0.00;;;28.50;41.30;;;;;;5134952;27;20094;-74
2022/07/16 00:58:44;;;;;;;0.00;0.00;;;28.90;40.40;;;;;;5135633;27;20023;-74
2022/07/16 01:01:11;;;;;;;0.43;0.43;;;29.80;41.90;;;;;;5126483;27;20031;-74
2022/07/16 01:03:39;;;;;;;0.00;0.00;;;30.20;40.60;;;;;;5123465;27;20027;-72
2022/07/16 01:06:07;;;;;;;0.00;0.00;;;30.50;38.10;;;;;;5105496;27;20103;-73
2022/07/16 01:08:39;;;;;;;0.00;0.00;;;31.10;36.80;;;;;;5129041;27;20019;-72
2022/07/16 01:11:07;;;;;;;0.00;0.00;;;31.90;37.40;;;;;;5124509;27;20088;-73
2022/07/16 01:13:39;;;;;;;0.00;0.00;;;31.90;35.70;;;;;;5125977;27;20031;-72
2022/07/16 01:16:05;;;;;;;0.00;0.00;;;32.80;35.30;;;;;;5116222;27;20080;-74
2022/07/16 01:18:32;;;;;;;1.65;1.55;;;32.90;34.40;;;;;;5127713;27;20030;-74
2022/07/16 01:20:59;;;;;;;0.00;0.00;;;32.90;35.50;;;;;;5126259;27;20084;-74
2022/07/16 01:23:26;;;;;;;0.00;0.00;;;33.30;34.80;;;;;;5116863;27;20035;-74
2022/07/16 01:25:52;;;;;;;2.35;2.15;;;33.40;34.90;;;;;;5114868;27;20023;-74
2022/07/16 01:28:19;;;;;;;0.00;0.00;;;33.40;34.60;;;;;;5115446;27;20015;-74
2022/07/16 01:30:46;;;;;;;0.00;0.00;;;33.40;35.70;;;;;;5095591;28;20019;-74
2022/07/16 01:34:24;;;;;;;0.00;0.00;;;33.40;35.50;;;;;;5098700;28;20031;-74
2022/07/16 01:36:31;;;;;;;0.10;0.10;;;32.70;35.60;;;;;;5081016;27;20031;-74
2022/07/16 01:38:57;;;;;;;0.00;0.00;;;32.60;36.80;;;;;;5106885;27;20043;-74
2022/07/16 01:41:23;;;;;;;0.00;0.00;;;32.90;36.70;;;;;;5112895;27;20019;-74
2022/07/16 01:43:49;;;;;;;0.00;0.00;;;32.80;36.60;;;;;;5110145;27;20030;-74
2022/07/16 01:46:15;;;;;;;0.00;0.00;;;32.30;37.40;;;;;;5133262;27;20030;-74
2022/07/16 01:48:41;;;;;;;0.10;0.10;;;31.10;39.30;;;;;;5127033;27;20031;-74
2022/07/16 01:51:07;;;;;;;0.00;0.00;;;31.40;39.40;;;;;;5118984;27;20022;-74
2022/07/16 01:53:33;;;;;;;0.00;0.00;;;32.30;37.50;;;;;;5111260;27;20119;-74
2022/07/16 01:56:00;;;;;;;0.00;0.00;;;33.10;37.10;;;;;;5133986;27;20027;-75
2022/07/16 01:58:26;;;;;;;0.00;0.00;;;33.50;35.90;;;;;;5123474;27;20430;-74
2022/07/16 02:00:53;;;;;;;0.38;0.28;;;32.00;37.10;;;;;;5134162;27;20489;-75
2022/07/16 02:03:19;;;;;;;0.05;0.05;;;32.60;36.90;;;;;;5118346;27;20039;-75
2022/07/16 02:05:46;;;;;;;0.00;0.00;;;32.30;39.00;;;;;;5117487;27;20015;-74
2022/07/16 02:08:12;;;;;;;1.08;0.70;;;31.60;41.00;;;;;;5106461;28;20019;-75
2022/07/16 02:10:39;;;;;;;0.13;0.13;;;32.00;39.50;;;;;;5116111;27;20024;-74
2022/07/16 02:13:05;;;;;;;2.03;1.88;;;32.60;40.30;;;;;;5115156;28;20076;-74
2022/07/16 02:15:32;;;;;;;0.03;0.03;;;32.60;39.90;;;;;;5097940;28;20443;-73
2022/07/16 02:17:58;;;;;;;0.22;0.22;;;32.10;41.30;;;;;;5114906;28;20145;-74
2022/07/16 02:20:25;;;;;;;1.15;0.20;;;32.80;40.10;;;;;;5094970;28;20486;-74
2022/07/16 02:22:55;;;;;;;0.88;0.57;;;33.10;40.40;;;;;;5117100;28;20070;-74
2022/07/16 02:25:21;;;;;;;6.25;1.05;;;33.40;40.20;;;;;;5133441;28;20462;-74
2022/07/16 02:30:33;;;;;;;0.38;0.38;;;33.20;40.20;;;;;;5121762;28;20035;-74
2022/07/16 02:33:00;;;;;;;0.00;0.00;;;33.00;41.90;;;;;;5099947;28;20031;-74
2022/07/16 02:35:26;;;;;;;3.20;2.92;;;33.40;40.70;;;;;;5121061;28;20028;-74
2022/07/16 02:37:51;;;;;;;5.07;1.60;;;34.10;39.20;;;;;;5096913;28;20115;-74
2022/07/16 02:40:18;;;;;;;0.43;0.43;;;34.00;39.30;;;;;;5121910;28;20099;-74
2022/07/16 02:42:44;;;;;;;0.03;0.03;;;33.60;37.10;;;;;;5114135;28;20027;-74
2022/07/16 02:45:11;;;;;;;0.00;0.00;;;34.10;36.40;;;;;;5098690;28;20023;-74
2022/07/16 02:47:37;;;;;;;0.73;0.38;;;34.10;36.60;;;;;;5133375;28;20474;-74
2022/07/16 02:50:04;;;;;;;1.35;1.30;;;35.10;34.70;;;;;;5115158;28;20030;-74
2022/07/16 02:52:30;;;;;;;2.72;2.63;;;35.60;34.30;;;;;;5133522;28;20273;-74
2022/07/16 02:54:56;;;;;;;1.35;1.25;;;35.50;34.00;;;;;;5115042;28;20027;-74
2022/07/16 02:57:22;;;;;;;1.10;0.13;;;36.40;32.80;;;;;;5133466;28;20023;-74
2022/07/16 02:59:48;;;;;;;0.55;0.55;;;35.10;33.10;;;;;;5127702;27;20038;-74
2022/07/16 03:02:14;;;;;;;0.08;0.08;;;35.10;33.00;;;;;;5122935;28;20329;-74
2022/07/16 03:04:40;;;;;;;2.90;1.25;;;35.40;30.90;;;;;;5123369;28;20012;-75
2022/07/16 03:07:07;;;;;;;0.00;0.00;;;35.40;30.90;;;;;;5119689;28;20019;-74
2022/07/16 03:09:34;;;;;;;0.00;0.00;;;34.90;31.20;;;;;;5095159;28;20072;-75
2022/07/16 03:12:00;;;;;;;2.63;2.13;;;34.90;31.80;;;;;;5102277;28;20095;-74
2022/07/16 03:14:26;;;;;;;0.05;0.05;;;34.50;31.10;;;;;;5123283;28;20537;-74
2022/07/16 03:16:52;;;;;;;0.38;0.17;;;34.80;31.60;;;;;;5121838;28;20023;-74
2022/07/16 03:19:18;;;;;;;0.00;0.00;;;35.60;29.50;;;;;;5117317;28;20081;-74
2022/07/16 03:21:44;;;;;;;0.00;0.00;;;36.20;27.00;;;;;;5110767;28;20023;-75
2022/07/16 03:24:10;;;;;;;0.38;0.38;;;36.50;27.60;;;;;;5126654;27;20023;-75
2022/07/16 03:26:36;;;;;;;0.00;0.00;;;37.20;27.10;;;;;;5136791;27;20055;-75
2022/07/16 03:29:02;;;;;;;0.00;0.00;;;37.60;26.50;;;;;;5130768;27;20043;-75
2022/07/16 03:31:31;;;;;;;0.00;0.00;;;36.60;27.60;;;;;;5100182;27;20058;-75
2022/07/16 03:33:57;;;;;;;0.43;0.43;;;37.20;27.50;;;;;;5118492;27;20062;-75
2022/07/16 03:36:23;;;;;;;0.60;0.60;;;36.00;28.10;;;;;;5118031;27;20054;-74
2022/07/16 03:39:04;;;;;;;0.20;0.20;;;35.70;28.20;;;;;;5120284;27;20100;-74
2022/07/16 03:41:35;;;;;;;0.15;0.10;;;35.30;28.30;;;;;;5117320;27;20027;-74
2022/07/16 03:44:03;;;;;;;0.47;0.43;;;34.40;29.10;;;;;;5114908;28;20080;-74
2022/07/16 03:46:29;;;;;;;0.00;0.00;;;34.20;29.90;;;;;;5116075;28;20020;-74
2022/07/16 03:48:56;;;;;;;0.08;0.03;;;34.60;30.60;;;;;;5102379;27;20572;-75
2022/07/16 03:51:23;;;;;;;0.47;0.47;;;34.70;30.10;;;;;;5125383;27;20555;-75
2022/07/16 03:53:49;;;;;;;0.00;0.00;;;35.40;29.80;;;;;;5127413;27;20023;-75
2022/07/16 03:56:15;;;;;;;0.65;0.20;;;34.60;29.90;;;;;;5122219;27;20091;-75
2022/07/16 03:58:41;;;;;;;0.98;0.98;;;33.70;31.80;;;;;;5128697;27;20461;-75
2022/07/16 04:01:08;;;;;;;1.95;1.75;;;32.80;33.10;;;;;;5136240;27;20027;-73
2022/07/16 04:03:35;;;;;;;0.00;0.00;;;32.60;33.50;;;;;;5134864;27;20023;-73
2022/07/16 04:06:02;;;;;;;0.20;0.20;;;32.30;33.60;;;;;;5132374;27;20019;-74
2022/07/16 04:08:28;;;;;;;2.33;0.70;;;32.50;32.10;;;;;;5123339;27;20473;-76
2022/07/16 04:10:54;;;;;;;0.35;0.35;;;32.60;31.20;;;;;;5125002;27;20023;-75
2022/07/16 04:13:21;;;;;;;0.00;0.00;;;31.90;31.00;;;;;;5133446;27;20366;-76
2022/07/16 04:15:47;;;;;;;0.00;0.00;;;31.60;33.30;;;;;;5128958;27;20193;-75
2022/07/16 04:18:13;;;;;;;3.00;0.43;;;30.90;35.70;;;;;;5126059;27;20027;-76
2022/07/16 04:20:40;;;;;;;2.58;2.03;;;30.70;36.10;;;;;;5115519;28;20051;-75
2022/07/16 04:23:06;;;;;;;0.00;0.00;;;30.70;37.20;;;;;;5115472;27;20031;-75
2022/07/16 04:25:32;;;;;;;0.75;0.75;;;30.60;37.30;;;;;;5116227;27;20023;-76
2022/07/16 04:27:59;;;;;;;0.95;0.60;;;30.70;36.50;;;;;;5096995;28;20457;-75
2022/07/16 04:30:25;;;;;;;0.00;0.00;;;30.90;35.40;;;;;;5128544;27;20084;-75
2022/07/16 04:32:51;;;;;;;0.00;0.00;;;30.90;35.90;;;;;;5135925;27;20019;-75
2022/07/16 04:35:18;;;;;;;4.18;1.42;;;30.40;35.70;;;;;;5134738;27;20465;-75
2022/07/16 04:37:44;;;;;;;0.25;0.25;;;30.40;37.70;;;;;;5128627;27;20027;-76
2022/07/16 04:40:12;;;;;;;0.00;0.00;;;30.10;37.40;;;;;;5116205;28;20493;-75
2022/07/16 04:42:42;;;;;;;0.30;0.30;;;30.20;37.50;;;;;;5098707;28;20038;-76
2022/07/16 04:45:10;;;;;;;0.50;0.30;;;30.30;37.30;;;;;;5097072;28;20016;-75
2022/07/16 04:47:37;;;;;;;0.52;0.43;;;30.40;37.50;;;;;;5116061;28;20016;-75
2022/07/16 04:50:03;;;;;;;0.25;0.25;;;30.50;36.60;;;;;;5116211;28;20071;-75
2022/07/16 04:52:32;;;;;;;1.35;1.27;;;30.40;36.60;;;;;;5096923;28;20138;-75
2022/07/16 04:55:00;;;;;;;2.30;0.47;;;30.50;37.40;;;;;;5123865;27;20168;-75
2022/07/16 04:57:26;;;;;;;9.90;5.25;;;30.30;38.60;;;;;;5136794;27;20019;-75
2022/07/16 04:59:52;;;;;;;3.00;0.10;;;30.20;39.00;;;;;;5119094;27;20026;-75
2022/07/16 05:05:05;;;;;;;1.05;0.98;;;30.40;38.40;;;;;;5123367;27;20083;-74
2022/07/16 05:07:31;;;;;;;0.30;0.30;;;30.50;38.80;;;;;;5134731;27;20027;-76
2022/07/16 05:09:57;;;;;;;0.25;0.22;;;30.60;38.50;;;;;;5104690;28;20023;-77
2022/07/16 05:12:24;;;;;;;0.38;0.38;;;30.60;37.40;;;;;;5100448;28;20028;-75
2022/07/16 05:14:50;;;;;;;0.00;0.00;;;30.80;37.90;;;;;;5092653;28;20024;-74
2022/07/16 05:17:16;;;;;;;0.00;0.00;;;31.10;38.70;;;;;;5093824;28;20020;-75
2022/07/16 05:19:42;;;;;;;0.00;0.00;;;30.90;39.50;;;;;;5106926;28;20084;-75
2022/07/16 05:22:08;;;;;;;1.02;1.00;;;30.80;38.40;;;;;;5109444;28;20048;-74
2022/07/16 05:24:36;;;;;;;0.00;0.00;;;30.90;38.30;;;;;;5129537;27;20023;-74
2022/07/16 05:27:02;;;;;;;0.30;0.28;;;31.00;39.00;;;;;;5134168;27;20102;-75
2022/07/16 05:29:28;;;;;;;0.00;0.00;;;31.10;37.90;;;;;;5116022;27;20026;-74
2022/07/16 05:31:54;;;;;;;0.30;0.30;;;31.20;37.40;;;;;;5132790;27;20105;-74
2022/07/16 05:34:20;;;;;;;0.00;0.00;;;31.40;37.10;;;;;;5147962;27;20022;-74
2022/07/16 05:36:46;;;;;;;0.52;0.30;;;31.30;37.10;;;;;;5153417;27;20022;-75
2022/07/16 05:39:12;;;;;;;0.17;0.17;;;31.40;36.70;;;;;;5128277;27;20032;-75
2022/07/16 05:41:38;;;;;;;0.00;0.00;;;31.20;36.40;;;;;;5128835;27;20435;-74
2022/07/16 05:44:04;;;;;;;0.00;0.00;;;31.10;35.80;;;;;;5111652;27;20035;-75
2022/07/16 05:46:31;;;;;;;0.00;0.00;;;31.40;36.70;;;;;;5132084;27;20019;-75
2022/07/16 05:48:57;;;;;;;0.00;0.00;;;31.60;36.80;;;;;;5127869;27;20026;-74
2022/07/16 05:51:23;;;;;;;0.00;0.00;;;31.80;36.50;;;;;;5124852;27;20385;-73
2022/07/16 05:53:49;;;;;;;0.88;0.85;;;31.80;36.10;;;;;;5126020;27;20458;-75
2022/07/16 05:56:15;;;;;;;0.05;0.05;;;31.80;35.10;;;;;;5106702;27;20023;-75
2022/07/16 05:58:41;;;;;;;0.40;0.40;;;31.20;35.90;;;;;;5107564;28;20031;-75
2022/07/16 06:01:07;;;;;;;0.00;0.00;;;31.40;35.90;;;;;;5128802;27;20060;-75
2022/07/16 06:03:33;;;;;;;0.00;0.00;;;31.40;35.60;;;;;;5134023;27;20504;-75
2022/07/16 06:05:59;;;;;;;1.90;0.32;;;31.50;35.60;;;;;;5117886;27;20031;-76
2022/07/16 06:08:25;;;;;;;5.95;0.45;;;31.80;36.10;;;;;;5122722;27;20024;-75
2022/07/16 06:10:51;;;;;;;0.30;0.30;;;31.60;35.60;;;;;;5133754;27;20492;-75
2022/07/16 06:13:17;;;;;;;0.40;0.25;;;31.60;34.70;;;;;;5115142;27;20080;-75
2022/07/16 06:15:43;;;;;;;0.55;0.35;;;31.60;34.60;;;;;;5103048;27;20027;-75
2022/07/16 06:18:09;;;;;;;0.35;0.15;;;31.70;32.90;;;;;;5119502;27;20113;-74
2022/07/16 06:20:35;;;;;;;0.00;0.00;;;31.80;34.40;;;;;;5130394;27;20069;-75
2022/07/16 06:23:01;;;;;;;2.22;0.13;;;31.80;32.20;;;;;;5113632;28;20032;-75
2022/07/16 06:25:27;;;;;;;0.08;0.08;;;31.80;32.80;;;;;;5113641;27;20020;-75
2022/07/16 06:27:54;;;;;;;0.00;0.00;;;31.70;34.40;;;;;;5154479;27;20033;-76
2022/07/16 06:30:20;;;;;;;0.30;0.30;;;31.70;34.30;;;;;;5153042;27;20027;-76
2022/07/16 06:32:45;;;;;;;0.00;0.00;;;31.90;34.40;;;;;;5121616;27;20510;-73
2022/07/16 06:35:13;;;;;;;0.00;0.00;;;32.00;31.20;;;;;;5137054;27;20031;-74
2022/07/16 06:37:39;;;;;;;0.05;0.03;;;32.00;32.10;;;;;;5133772;28;20019;-78
2022/07/16 06:40:06;;;;;;;0.00;0.00;;;32.00;31.90;;;;;;5125483;27;20039;-75
2022/07/16 06:42:32;;;;;;;0.63;0.32;;;32.10;33.80;;;;;;5122779;28;20465;-75
2022/07/16 06:44:59;;;;;;;1.80;0.73;;;32.20;32.10;;;;;;5125561;28;20059;-75
2022/07/16 06:47:26;;;;;;;0.00;0.00;;;32.20;32.50;;;;;;5121722;27;20076;-75
2022/07/16 06:49:53;;;;;;;1.75;0.55;;;32.20;33.10;;;;;;5128641;28;20110;-75
2022/07/16 06:52:19;;;;;;;0.00;0.00;;;32.40;32.00;;;;;;5112101;28;20027;-75
2022/07/16 06:54:45;;;;;;;0.00;0.00;;;32.40;32.90;;;;;;5110579;28;20160;-76
2022/07/16 06:57:11;;;;;;;0.38;0.38;;;32.50;33.20;;;;;;5109311;28;20047;-75
2022/07/16 06:59:37;;;;;;;0.22;0.22;;;32.50;33.10;;;;;;5135260;27;20472;-75
2022/07/16 07:02:03;;;;;;;4.13;0.52;;;32.50;30.80;;;;;;5123603;27;20525;-75
2022/07/16 07:04:30;;;;;;;0.00;0.00;;;32.80;29.70;;;;;;5135495;27;20031;-75
2022/07/16 07:06:56;;;;;;;0.00;0.00;;;32.80;28.70;;;;;;5105746;27;20108;-75
2022/07/16 07:09:22;;;;;;;0.00;0.00;;;32.80;28.90;;;;;;5124926;27;20063;-76
2022/07/16 07:11:48;;;;;;;0.65;0.17;;;32.90;27.60;;;;;;5125894;27;20027;-75
2022/07/16 07:14:14;;;;;;;0.00;0.00;;;32.90;29.10;;;;;;5107531;27;20034;-76
2022/07/16 07:16:40;;;;;;;0.65;0.30;;;32.80;28.30;;;;;;5133672;27;20461;-76
2022/07/16 07:19:06;;;;;;;2.60;0.65;;;33.10;27.70;;;;;;5107452;27;20085;-75
2022/07/16 07:21:32;;;;;;;0.10;0.10;;;33.20;28.20;;;;;;5127994;27;20072;-75
2022/07/16 07:23:59;;;;;;;0.10;0.10;;;32.90;27.20;;;;;;5122510;27;20039;-74
2022/07/16 07:26:25;;;;;;;0.20;0.20;;;32.80;27.10;;;;;;5102582;27;20358;-75
2022/07/16 07:28:51;;;;;;;0.00;0.00;;;32.90;26.20;;;;;;5124526;27;20023;-75
2022/07/16 07:31:18;;;;;;;0.20;0.20;;;33.10;26.60;;;;;;5105660;27;20081;-75
2022/07/16 07:33:44;;;;;;;0.75;0.40;;;32.90;26.90;;;;;;5130831;27;20530;-75
2022/07/16 07:36:10;;;;;;;0.32;0.20;;;33.10;26.50;;;;;;5133692;27;20024;-75
2022/07/16 07:38:36;;;;;;;0.30;0.30;;;33.00;24.80;;;;;;5135502;27;20511;-74
2022/07/16 07:41:03;;;;;;;0.38;0.30;;;33.20;28.10;;;;;;5137038;27;20023;-75
2022/07/16 07:43:29;;;;;;;0.00;0.00;;;33.30;28.60;;;;;;5118264;27;20027;-75
2022/07/16 07:45:55;;;;;;;0.22;0.13;;;33.30;27.70;;;;;;5122626;27;20141;-75
2022/07/16 07:48:22;;;;;;;0.00;0.00;;;33.10;28.70;;;;;;5132330;27;20047;-76
2022/07/16 07:50:48;;;;;;;2.65;0.10;;;33.00;28.90;;;;;;5125678;27;20020;-76
2022/07/16 07:53:14;;;;;;;0.00;0.00;;;33.00;29.30;;;;;;5116029;28;20023;-76
2022/07/16 07:55:41;;;;;;;0.00;0.00;;;33.10;29.10;;;;;;5116310;28;20382;-76
2022/07/16 07:58:08;;;;;;;0.00;0.00;;;33.40;28.80;;;;;;5116228;28;20024;-76
2022/07/16 08:00:34;;;;;;;0.00;0.00;;;33.70;28.40;;;;;;5116016;28;20038;-76
2022/07/16 08:03:00;;;;;;;0.20;0.03;;;34.00;27.60;;;;;;5115680;28;20024;-76
2022/07/16 08:05:26;;;;;;;3.53;0.10;;;33.90;26.80;;;;;;5097463;28;20027;-76
2022/07/16 08:07:52;;;;;;;0.00;0.00;;;34.10;27.00;;;;;;5119485;27;20552;-76
2022/07/16 08:10:18;;;;;;;0.00;0.00;;;34.00;27.40;;;;;;5101025;27;20119;-75
2022/07/16 08:12:45;;;;;;;0.00;0.00;;;34.30;26.30;;;;;;5113275;28;20083;-75
2022/07/16 08:15:12;;;;;;;0.00;0.00;;;34.50;25.80;;;;;;5118756;28;20080;-76
2022/07/16 08:17:40;;;;;;;0.70;0.43;;;34.60;25.70;;;;;;5137220;27;20027;-77
2022/07/16 08:20:07;;;;;;;0.00;0.00;;;34.60;26.10;;;;;;5138606;27;20027;-77
2022/07/16 08:22:33;;;;;;;0.00;0.00;;;34.50;26.70;;;;;;5133754;27;20169;-77
2022/07/16 08:27:43;;;;;;;0.20;0.00;;;34.20;26.70;;;;;;5126732;27;20524;-75
2022/07/16 08:30:10;;;;;;;1.50;1.45;;;34.40;27.30;;;;;;5131375;27;20023;-74
2022/07/16 08:32:36;;;;;;;2.35;0.38;;;34.60;27.00;;;;;;5134722;27;20048;-76
2022/07/16 08:35:03;;;;;;;0.08;0.08;;;34.20;27.40;;;;;;5132041;27;20019;-74
2022/07/16 08:37:40;;;;;;;5.97;0.45;;;34.10;27.40;;;;;;5131370;27;20026;-75
2022/07/16 08:40:10;;;;;;;0.00;0.00;;;34.30;27.00;;;;;;5126268;27;20130;-75
2022/07/16 08:42:37;;;;;;;2.28;2.08;;;34.60;26.30;;;;;;5135527;27;20022;-75
2022/07/16 08:45:06;;;;;;;0.00;0.00;;;34.70;25.80;;;;;;5107078;27;20031;-75
2022/07/16 08:47:34;;;;;;;0.00;0.00;;;34.30;26.50;;;;;;5108365;27;20058;-76
2022/07/16 08:50:02;;;;;;;1.88;1.17;;;34.40;26.60;;;;;;5135556;27;20026;-74
2022/07/16 08:52:29;;;;;;;0.00;0.00;;;34.50;27.00;;;;;;5132421;27;20051;-73
2022/07/16 08:54:56;;;;;;;1.70;1.05;;;34.60;27.00;;;;;;5108059;27;20038;-74
2022/07/16 08:57:24;;;;;;;0.10;0.10;;;34.30;27.10;;;;;;5107063;27;20069;-75
2022/07/16 08:59:53;;;;;;;0.63;0.60;;;34.20;26.90;;;;;;5123216;27;20031;-75
2022/07/16 09:02:20;;;;;;;0.00;0.00;;;34.00;27.40;;;;;;5125558;27;20058;-75
2022/07/16 09:04:47;;;;;;;0.00;0.00;;;34.00;27.50;;;;;;5120415;27;20084;-75
2022/07/16 09:07:17;;;;;;;0.00;0.00;;;34.20;27.20;;;;;;5121952;27;20095;-75
2022/07/16 09:09:44;;;;;;;0.00;0.00;;;34.60;26.40;;;;;;5104785;27;20447;-74
2022/07/16 09:12:11;;;;;;;0.13;0.13;;;34.90;26.90;;;;;;5121469;27;20079;-75
2022/07/16 09:14:38;;;;;;;0.25;0.10;;;35.10;26.30;;;;;;5100349;27;20020;-74
2022/07/16 09:17:04;;;;;;;0.10;0.03;;;34.80;26.40;;;;;;5123651;27;20469;-74
2022/07/16 09:19:30;;;;;;;0.00;0.00;;;34.50;26.10;;;;;;5105426;27;20062;-74
2022/07/16 09:22:10;;;;;;;0.00;0.00;;;34.40;26.70;;;;;;5106588;27;20020;-74
2022/07/16 09:24:48;;;;;;;0.00;0.00;;;34.30;26.80;;;;;;5121432;27;21731;-74
2022/07/16 09:27:17;;;;;;;0.15;0.10;;;34.60;26.40;;;;;;5104716;27;20023;-74
2022/07/16 09:29:52;;;;;;;0.00;0.00;;;34.50;26.00;;;;;;5107455;27;20019;-74
2022/07/16 09:32:39;;;;;;;0.00;0.00;;;34.60;26.90;;;;;;5121696;27;20019;-74
2022/07/16 09:35:16;;;;;;;0.00;0.00;;;34.80;26.00;;;;;;5098199;28;20024;-74
2022/07/16 09:37:55;;;;;;;0.00;0.00;;;34.90;25.80;;;;;;5120780;27;20030;-74
2022/07/16 09:40:46;;;;;;;0.00;0.00;;;34.80;25.60;;;;;;5117445;27;20043;-74
2022/07/16 09:43:15;;;;;;;0.00;0.00;;;34.80;25.90;;;;;;5108687;27;20027;-74
2022/07/16 09:45:43;;;;;;;0.00;0.00;;;34.50;26.30;;;;;;5109324;28;20027;-74
2022/07/16 09:48:37;;;;;;;0.00;0.00;;;34.70;26.40;;;;;;5118479;27;20023;-74
2022/07/16 09:51:15;;;;;;;0.10;0.10;;;34.60;26.60;;;;;;5125336;27;20098;-73
2022/07/16 09:53:43;;;;;;;0.00;0.00;;;34.60;26.20;;;;;;5119341;27;20524;-74
2022/07/16 09:56:13;;;;;;;0.00;0.00;;;34.60;26.40;;;;;;5105591;28;20508;-74
2022/07/16 09:58:39;;;;;;;0.00;0.00;;;34.70;26.50;;;;;;5122212;27;20027;-75
2022/07/16 10:01:06;;;;;;;0.35;0.00;;;34.90;26.30;;;;;;5121588;27;20027;-74
2022/07/16 10:03:32;;;;;;;0.00;0.00;;;35.00;26.60;;;;;;5100521;27;20497;-74
2022/07/16 10:05:58;;;;;;;0.38;0.30;;;35.00;26.20;;;;;;5104419;27;20456;-75
2022/07/16 10:08:25;;;;;;;0.30;0.13;;;34.70;26.70;;;;;;5124316;27;20066;-74
2022/07/16 10:10:51;;;;;;;0.00;0.00;;;34.60;26.30;;;;;;5104732;28;20134;-74
2022/07/16 10:13:23;;;;;;;0.00;0.00;;;34.60;25.90;;;;;;5124912;27;20027;-75
2022/07/16 10:15:49;;;;;;;0.00;0.00;;;34.60;26.40;;;;;;5117277;27;20054;-75
2022/07/16 10:18:43;;;;;;;0.10;0.10;;;34.20;26.70;;;;;;5100587;28;20071;-74
2022/07/16 10:21:21;;;;;;;0.03;0.03;;;34.20;26.40;;;;;;5109779;27;20035;-74
2022/07/16 10:24:10;;;;;;;0.00;0.00;;;34.40;27.20;;;;;;5105622;28;20382;-74
2022/07/16 10:26:37;;;;;;;0.00;0.00;;;34.40;26.20;;;;;;5119891;27;20020;-74
2022/07/16 10:29:04;;;;;;;0.00;0.00;;;34.40;26.60;;;;;;5118986;28;20015;-74
2022/07/16 10:34:39;;;;;;;0.00;0.00;;;34.10;26.30;;;;;;5092859;27;20028;-73
2022/07/16 10:37:27;;;;;;;0.00;0.00;;;34.10;26.30;;;;;;5122813;27;20024;-75
2022/07/16 10:40:06;;;;;;;0.00;0.00;;;33.90;26.40;;;;;;5120187;27;20039;-75
2022/07/16 10:42:33;;;;;;;0.00;0.00;;;33.90;26.60;;;;;;5126746;27;20111;-75
2022/07/16 10:44:59;;;;;;;0.10;0.10;;;34.00;26.70;;;;;;5129428;27;20016;-75
2022/07/16 10:47:46;;;;;;;0.00;0.00;;;34.10;26.10;;;;;;5130060;27;20016;-73
2022/07/16 10:50:19;;;;;;;0.43;0.43;;;34.30;26.50;;;;;;5078624;28;20467;-76
2022/07/16 10:52:48;;;;;;;0.00;0.00;;;34.40;27.00;;;;;;5078683;28;20444;-75
2022/07/16 10:55:31;;;;;;;0.20;0.05;;;34.40;26.90;;;;;;5078394;28;20096;-72
2022/07/16 10:57:58;;;;;;;0.00;0.00;;;34.40;27.20;;;;;;5097401;28;20106;-73
2022/07/16 11:00:24;;;;;;;0.00;0.00;;;34.40;27.00;;;;;;5107961;28;20024;-73
2022/07/16 11:02:58;;;;;;;0.00;0.00;;;34.40;27.40;;;;;;5115386;28;20026;-74
2022/07/16 11:05:26;;;;;;;0.08;0.08;;;34.10;27.00;;;;;;5103282;28;20019;-75
2022/07/16 11:07:52;;;;;;;0.00;0.00;;;34.20;26.80;;;;;;5104647;28;20028;-75
2022/07/16 11:10:23;;;;;;;0.00;0.00;;;34.30;27.20;;;;;;5101936;28;20035;-75
2022/07/16 11:12:49;;;;;;;0.00;0.00;;;34.00;26.60;;;;;;5115518;28;20381;-75
2022/07/16 11:15:15;;;;;;;0.25;0.22;;;34.10;26.60;;;;;;5106566;28;20035;-75
2022/07/16 11:17:41;;;;;;;0.00;0.00;;;33.70;26.90;;;;;;5098451;28;20031;-75
2022/07/16 11:20:09;;;;;;;1.45;1.40;;;33.70;27.40;;;;;;5087270;28;20085;-75
2022/07/16 11:22:35;;;;;;;0.00;0.00;;;33.80;27.30;;;;;;5092381;28;20040;-75
2022/07/16 11:25:05;;;;;;;0.00;0.00;;;33.90;27.60;;;;;;5107985;28;20024;-75
2022/07/16 11:27:39;;;;;;;0.00;0.00;;;33.90;27.10;;;;;;5087919;28;20035;-75
2022/07/16 11:30:10;;;;;;;0.45;0.40;;;33.90;27.00;;;;;;5091484;27;20039;-75
2022/07/16 11:32:44;;;;;;;0.00;0.00;;;34.10;26.60;;;;;;5100206;28;20036;-77
2022/07/16 11:35:10;;;;;;;0.00;0.00;;;34.20;25.80;;;;;;5096067;27;20478;-77
2022/07/16 11:37:54;;;;;;;0.00;0.00;;;34.10;26.10;;;;;;5114500;28;20055;-78
2022/07/16 11:40:31;;;;;;;0.00;0.00;;;33.80;26.10;;;;;;5089106;28;20052;-77
2022/07/16 11:43:00;;;;;;;0.00;0.00;;;33.70;25.10;;;;;;5105743;28;20077;-77
2022/07/16 11:45:27;;;;;;;0.00;0.00;;;33.80;24.60;;;;;;5111260;28;20042;-77
2022/07/16 11:48:13;;;;;;;0.00;0.00;;;33.70;24.40;;;;;;5110613;28;20030;-75
2022/07/16 11:50:40;;;;;;;0.00;0.00;;;33.60;24.30;;;;;;5077730;28;20497;-77
2022/07/16 11:53:06;;;;;;;0.00;0.00;;;33.60;24.30;;;;;;5110322;28;20043;-77
2022/07/16 11:55:33;;;;;;;0.00;0.00;;;33.70;24.10;;;;;;5105305;28;20028;-77
2022/07/16 11:57:59;;;;;;;0.00;0.00;;;33.70;24.60;;;;;;5093026;28;20051;-76
2022/07/16 12:00:25;;;;;;;0.00;0.00;;;33.70;24.60;;;;;;5115994;28;20099;-76
2022/07/16 12:02:58;;;;;;;0.00;0.00;;;33.60;24.80;;;;;;5109800;28;20039;-76
2022/07/16 12:05:28;;;;;;;0.00;0.00;;;33.70;24.90;;;;;;5077432;28;20028;-76
2022/07/16 12:07:55;;;;;;;0.00;0.00;;;33.70;25.10;;;;;;5093145;28;20020;-75
2022/07/16 12:10:25;;;;;;;0.00;0.00;;;33.60;25.60;;;;;;5123531;27;20052;-76
2022/07/16 12:13:02;;;;;;;0.00;0.00;;;33.50;25.90;;;;;;5082939;28;20147;-77
2022/07/16 12:15:28;;;;;;;0.00;0.00;;;33.50;26.20;;;;;;5106586;28;20088;-75
2022/07/16 12:17:54;;;;;;;0.10;0.10;;;33.40;25.80;;;;;;5099955;28;20107;-76
2022/07/16 12:20:28;;;;;;;0.00;0.00;;;33.40;25.60;;;;;;5097510;28;20063;-78
2022/07/16 12:23:04;;;;;;;0.00;0.00;;;33.30;25.60;;;;;;5124460;27;20031;-76
2022/07/16 12:25:32;;;;;;;0.30;0.13;;;33.40;25.40;;;;;;5127654;27;20214;-77
2022/07/16 12:28:08;;;;;;;0.00;0.00;;;33.50;25.80;;;;;;5113212;28;20023;-79
2022/07/16 12:30:39;;;;;;;0.00;0.00;;;33.30;25.20;;;;;;5104355;28;20027;-75
2022/07/16 12:33:23;;;;;;;0.00;0.00;;;33.30;24.80;;;;;;5114340;28;20110;-75
2022/07/16 12:36:01;;;;;;;0.00;0.00;;;33.20;25.30;;;;;;5097488;28;20063;-76
2022/07/16 12:38:51;;;;;;;0.00;0.00;;;33.20;25.30;;;;;;5110156;27;20119;-76
2022/07/16 12:41:29;;;;;;;2.50;2.17;;;33.20;25.50;;;;;;5107125;28;20024;-75
2022/07/16 12:44:00;;;;;;;0.38;0.20;;;33.10;25.90;;;;;;5106894;27;20106;-76
2022/07/16 12:46:31;;;;;;;0.00;0.00;;;33.10;25.70;;;;;;5111717;28;20020;-76
2022/07/16 12:49:02;;;;;;;0.00;0.00;;;33.00;26.10;;;;;;5113742;28;20574;-75
2022/07/16 12:51:35;;;;;;;0.00;0.00;;;33.00;26.30;;;;;;5092726;28;20462;-75
2022/07/16 12:54:03;;;;;;;0.00;0.00;;;33.00;26.00;;;;;;5113715;28;20096;-75
2022/07/16 12:59:15;;;;;;;0.00;0.00;;;33.00;25.80;;;;;;5115133;27;20080;-76
2022/07/16 13:01:41;;;;;;;0.00;0.00;;;33.00;25.80;;;;;;5090631;28;20023;-76
2022/07/16 13:04:08;;;;;;;0.00;0.00;;;33.00;25.70;;;;;;5109487;27;20032;-76
2022/07/16 13:06:35;;;;;;;0.00;0.00;;;33.00;25.80;;;;;;5110253;27;20016;-76
2022/07/16 13:09:02;;;;;;;0.00;0.00;;;33.00;25.80;;;;;;5092740;27;20019;-76